createdAt,value
2022-12-31T00:00:11.394Z,66.80
2022-12-31T00:02:38.031Z,59.55
2022-12-31T00:05:05.017Z,63.70
2022-12-31T00:09:59.409Z,72.50
2022-12-31T00:12:25.992Z,58.08
2022-12-31T00:14:52.538Z,62.17
2022-12-31T00:17:19.157Z,64.07
2022-12-31T00:19:45.767Z,80.75
2022-12-31T00:22:12.313Z,67.87
2022-12-31T00:24:38.888Z,55.17
2022-12-31T00:27:05.493Z,62.38
2022-12-31T00:29:32.062Z,73.40
2022-12-31T00:31:58.636Z,64.55
2022-12-31T00:34:25.196Z,78.32
2022-12-31T00:36:52.840Z,71.53
2022-12-31T00:39:19.430Z,69.00
2022-12-31T00:41:46.094Z,80.90
2022-12-31T00:44:12.867Z,68.78
2022-12-31T00:49:05.331Z,70.62
2022-12-31T00:51:31.984Z,60.25
2022-12-31T00:53:59.216Z,57.45
2022-12-31T00:56:29.755Z,62.22
2022-12-31T00:58:56.993Z,63.22
2022-12-31T01:01:28.113Z,61.40
2022-12-31T01:03:58.575Z,64.10
2022-12-31T01:06:25.129Z,62.58
2022-12-31T01:08:53.157Z,66.55
2022-12-31T01:11:20.511Z,54.10
2022-12-31T01:13:56.049Z,60.80
2022-12-31T01:16:30.350Z,66.95
2022-12-31T01:19:03.398Z,61.50
2022-12-31T01:23:58.187Z,60.58
2022-12-31T01:26:24.989Z,66.37
2022-12-31T01:28:51.721Z,75.28
2022-12-31T01:31:20.281Z,56.00
2022-12-31T01:33:47.588Z,62.25
2022-12-31T01:36:26.604Z,61.58
2022-12-31T01:38:55.421Z,61.83
2022-12-31T01:41:28.822Z,66.28
2022-12-31T01:44:01.105Z,68.93
2022-12-31T01:46:45.513Z,62.03
2022-12-31T01:49:31.393Z,61.70
2022-12-31T01:52:22.675Z,64.50
2022-12-31T01:55:05.918Z,63.22
2022-12-31T01:57:32.835Z,69.85
2022-12-31T02:00:01.701Z,57.08
2022-12-31T02:02:28.694Z,65.05
2022-12-31T02:04:58.387Z,50.72
2022-12-31T02:07:25.235Z,58.53
2022-12-31T02:09:52.204Z,56.05
2022-12-31T02:12:18.948Z,62.15
2022-12-31T02:14:51.995Z,55.83
2022-12-31T02:17:43.782Z,66.82
2022-12-31T02:20:13.412Z,55.17
2022-12-31T02:23:04.747Z,60.15
2022-12-31T02:25:49.103Z,60.63
2022-12-31T02:28:37.631Z,58.30
2022-12-31T02:31:12.374Z,62.55
2022-12-31T02:33:44.678Z,63.95
2022-12-31T02:36:34.675Z,61.63
2022-12-31T02:39:04.110Z,57.00
2022-12-31T02:41:49.261Z,58.87
2022-12-31T02:44:24.568Z,66.90
2022-12-31T02:47:13.584Z,70.68
2022-12-31T02:50:17.506Z,69.22
2022-12-31T02:53:02.161Z,64.00
2022-12-31T02:55:53.213Z,60.90
2022-12-31T02:58:55.382Z,63.65
2022-12-31T03:01:48.925Z,62.35
2022-12-31T03:04:32.232Z,65.22
2022-12-31T03:12:18.681Z,72.82
2022-12-31T03:14:45.368Z,67.25
2022-12-31T03:17:12.442Z,59.00
2022-12-31T03:19:57.743Z,74.18
2022-12-31T03:22:27.468Z,60.45
2022-12-31T03:25:28.880Z,69.10
2022-12-31T03:27:55.549Z,72.53
2022-12-31T03:30:23.967Z,67.32
2022-12-31T03:32:51.269Z,70.15
2022-12-31T03:35:20.309Z,68.97
2022-12-31T03:37:48.354Z,67.72
2022-12-31T03:40:16.392Z,74.40
2022-12-31T03:42:43.011Z,63.63
2022-12-31T03:45:10.919Z,63.42
2022-12-31T03:47:38.073Z,72.15
2022-12-31T03:50:06.517Z,69.50
2022-12-31T03:52:33.117Z,59.80
2022-12-31T03:54:59.661Z,58.30
2022-12-31T03:57:26.220Z,71.87
2022-12-31T03:59:52.813Z,62.80
2022-12-31T04:02:23.255Z,69.85
2022-12-31T04:04:54.753Z,68.45
2022-12-31T04:07:21.333Z,65.40
2022-12-31T04:09:47.895Z,66.20
2022-12-31T04:12:14.504Z,65.78
2022-12-31T04:14:41.271Z,65.60
2022-12-31T04:17:07.830Z,71.18
2022-12-31T04:19:34.408Z,66.18
2022-12-31T04:22:00.984Z,72.55
2022-12-31T04:24:27.669Z,63.87
2022-12-31T04:26:54.222Z,72.30
2022-12-31T04:29:20.842Z,59.08
2022-12-31T04:31:47.515Z,59.67
2022-12-31T04:34:14.184Z,73.53
2022-12-31T04:36:40.769Z,69.65
2022-12-31T04:39:07.386Z,70.55
2022-12-31T04:41:34.374Z,68.10
2022-12-31T04:44:01.113Z,73.97
2022-12-31T04:46:30.934Z,67.68
2022-12-31T04:48:57.745Z,64.72
2022-12-31T04:51:25.355Z,59.83
2022-12-31T04:53:52.419Z,62.85
2022-12-31T04:56:19.091Z,61.20
2022-12-31T04:58:45.883Z,59.55
2022-12-31T05:01:12.881Z,61.03
2022-12-31T05:03:39.663Z,68.60
2022-12-31T05:06:12.043Z,71.03
2022-12-31T05:08:38.691Z,71.70
2022-12-31T05:11:05.394Z,61.20
2022-12-31T05:13:33.669Z,59.47
2022-12-31T05:16:01.524Z,66.82
2022-12-31T05:18:28.298Z,57.53
2022-12-31T05:20:55.128Z,61.65
2022-12-31T05:23:21.731Z,59.22
2022-12-31T05:25:48.643Z,63.17
2022-12-31T05:28:16.016Z,66.12
2022-12-31T05:30:43.193Z,60.55
2022-12-31T05:33:10.394Z,57.42
2022-12-31T05:35:37.211Z,67.00
2022-12-31T05:38:03.886Z,59.47
2022-12-31T05:40:30.514Z,62.20
2022-12-31T05:42:57.118Z,66.22
2022-12-31T05:45:30.109Z,52.22
2022-12-31T05:47:57.440Z,61.45
2022-12-31T05:50:24.053Z,57.83
2022-12-31T05:52:50.722Z,53.03
2022-12-31T05:55:17.408Z,58.28
2022-12-31T05:57:44.040Z,57.28
2022-12-31T06:00:11.660Z,61.33
2022-12-31T06:02:38.284Z,56.15
2022-12-31T06:05:05.388Z,57.30
2022-12-31T06:07:31.977Z,56.55
2022-12-31T06:09:58.658Z,65.12
2022-12-31T06:12:25.255Z,63.10
2022-12-31T06:14:51.810Z,59.05
2022-12-31T06:17:19.305Z,66.53
2022-12-31T06:19:47.012Z,81.90
2022-12-31T06:22:13.906Z,71.40
2022-12-31T06:24:42.276Z,75.00
2022-12-31T06:27:09.101Z,70.12
2022-12-31T06:29:35.715Z,62.00
2022-12-31T06:32:02.356Z,75.37
2022-12-31T06:34:28.929Z,73.10
2022-12-31T06:36:55.473Z,73.22
2022-12-31T06:39:22.051Z,78.53
2022-12-31T06:41:48.639Z,81.95
2022-12-31T06:44:15.312Z,82.62
2022-12-31T06:46:42.976Z,70.95
2022-12-31T06:49:09.735Z,71.07
2022-12-31T06:51:36.297Z,83.65
2022-12-31T06:54:05.585Z,84.47
2022-12-31T06:56:34.673Z,83.28
2022-12-31T06:59:03.095Z,86.28
2022-12-31T07:01:39.745Z,75.80
2022-12-31T07:04:28.202Z,71.10
2022-12-31T07:07:32.508Z,72.65
2022-12-31T07:10:49.832Z,73.32
2022-12-31T07:13:26.574Z,75.00
2022-12-31T07:16:20.468Z,68.03
2022-12-31T07:19:05.832Z,66.93
2022-12-31T07:21:38.440Z,68.60
2022-12-31T07:24:07.317Z,64.55
2022-12-31T07:26:56.964Z,60.70
2022-12-31T07:29:57.722Z,66.22
2022-12-31T07:32:29.864Z,68.78
2022-12-31T07:35:28.443Z,58.37
2022-12-31T07:38:12.285Z,70.50
2022-12-31T07:41:10.175Z,75.10
2022-12-31T07:44:09.649Z,74.55
2022-12-31T07:46:43.978Z,67.87
2022-12-31T07:49:14.291Z,70.93
2022-12-31T07:51:42.138Z,71.10
2022-12-31T07:54:13.571Z,70.80
2022-12-31T07:56:41.069Z,68.82
2022-12-31T07:59:24.587Z,64.10
2022-12-31T08:02:22.527Z,67.03
2022-12-31T08:05:26.435Z,66.35
2022-12-31T08:08:15.703Z,57.45
2022-12-31T08:10:59.935Z,60.10
2022-12-31T08:13:27.380Z,66.00
2022-12-31T08:15:54.354Z,68.50
2022-12-31T08:18:21.179Z,64.70
2022-12-31T08:21:20.638Z,64.87
2022-12-31T08:24:28.624Z,59.63
2022-12-31T08:27:08.169Z,58.35
2022-12-31T08:29:42.409Z,60.40
2022-12-31T08:32:17.851Z,58.87
2022-12-31T08:35:14.852Z,64.37
2022-12-31T08:37:50.296Z,56.78
2022-12-31T08:40:26.348Z,63.95
2022-12-31T08:43:05.106Z,56.25
2022-12-31T08:45:41.848Z,63.00
2022-12-31T08:48:25.134Z,70.07
2022-12-31T08:53:18.590Z,58.38
2022-12-31T08:55:48.235Z,62.78
2022-12-31T08:58:42.486Z,63.38
2022-12-31T09:01:10.625Z,59.58
2022-12-31T09:03:58.450Z,54.45
2022-12-31T09:06:53.907Z,53.45
2022-12-31T09:09:46.733Z,56.28
2022-12-31T09:12:38.397Z,55.60
2022-12-31T09:15:25.591Z,55.80
2022-12-31T09:17:52.580Z,53.05
2022-12-31T09:20:42.978Z,64.82
2022-12-31T09:23:14.601Z,66.62
2022-12-31T09:25:50.915Z,64.07
2022-12-31T09:28:54.489Z,66.50
2022-12-31T09:31:54.248Z,65.82
2022-12-31T09:34:45.966Z,56.97
2022-12-31T09:37:22.276Z,66.87
2022-12-31T09:39:49.341Z,60.25
2022-12-31T09:42:27.934Z,62.95
2022-12-31T09:45:12.803Z,64.35
2022-12-31T09:48:00.338Z,57.13
2022-12-31T09:50:32.848Z,60.15
2022-12-31T09:53:14.898Z,57.35
2022-12-31T09:55:57.578Z,54.08
2022-12-31T09:58:40.896Z,58.50
2022-12-31T10:03:46.231Z,58.38
2022-12-31T10:06:31.882Z,57.80
2022-12-31T10:09:30.998Z,60.88
2022-12-31T10:12:00.380Z,57.42
2022-12-31T10:14:35.950Z,51.90
2022-12-31T10:17:02.496Z,53.78
2022-12-31T10:19:53.444Z,52.10
2022-12-31T10:22:45.482Z,50.97
2022-12-31T10:25:14.980Z,55.40
2022-12-31T10:28:03.607Z,52.65
2022-12-31T10:30:34.495Z,51.33
2022-12-31T10:33:18.276Z,55.28
2022-12-31T10:36:13.312Z,49.25
2022-12-31T10:39:15.338Z,50.70
2022-12-31T10:42:06.837Z,44.88
2022-12-31T10:44:42.683Z,48.28
2022-12-31T10:47:30.750Z,46.78
2022-12-31T10:50:34.948Z,50.65
2022-12-31T10:53:18.148Z,49.88
2022-12-31T10:58:33.039Z,57.85
2022-12-31T11:01:11.961Z,54.15
2022-12-31T11:03:47.951Z,50.30
2022-12-31T11:06:32.557Z,53.53
2022-12-31T11:09:59.546Z,57.25
2022-12-31T11:12:41.048Z,48.58
2022-12-31T11:15:16.516Z,49.20
2022-12-31T11:17:59.475Z,50.08
2022-12-31T11:20:50.124Z,53.53
2022-12-31T11:23:30.650Z,52.55
2022-12-31T11:26:24.684Z,50.05
2022-12-31T11:29:16.518Z,53.78
2022-12-31T11:32:02.110Z,49.33
2022-12-31T11:38:25.878Z,51.97
2022-12-31T11:41:03.495Z,48.05
2022-12-31T11:43:40.842Z,53.25
2022-12-31T11:46:10.411Z,49.83
2022-12-31T11:48:44.362Z,52.62
2022-12-31T11:51:58.268Z,51.85
2022-12-31T11:57:16.421Z,57.55
2022-12-31T11:59:43.783Z,60.35
2022-12-31T12:02:26.167Z,57.22
2022-12-31T12:04:55.092Z,60.95
2022-12-31T12:07:24.052Z,56.25
2022-12-31T12:09:53.277Z,52.40
2022-12-31T12:12:19.970Z,51.03
2022-12-31T12:14:54.001Z,53.83
2022-12-31T12:17:32.696Z,54.97
2022-12-31T12:20:16.968Z,51.78
2022-12-31T12:22:56.326Z,47.95
2022-12-31T12:25:26.105Z,51.72
2022-12-31T12:28:38.403Z,50.65
2022-12-31T12:31:34.183Z,46.00
2022-12-31T12:34:00.876Z,54.42
2022-12-31T12:36:27.416Z,45.38
2022-12-31T12:39:05.202Z,47.50
2022-12-31T12:41:32.793Z,43.70
2022-12-31T12:44:08.842Z,50.25
2022-12-31T12:47:16.128Z,51.13
2022-12-31T12:50:13.791Z,45.53
2022-12-31T12:52:56.408Z,44.30
2022-12-31T12:55:52.022Z,48.00
2022-12-31T12:58:30.453Z,47.25
2022-12-31T13:01:37.359Z,42.67
2022-12-31T13:07:14.139Z,43.45
2022-12-31T13:10:22.210Z,42.90
2022-12-31T13:13:23.914Z,44.25
2022-12-31T13:15:57.851Z,46.03
2022-12-31T13:18:30.217Z,45.35
2022-12-31T13:24:59.144Z,42.65
2022-12-31T13:27:33.851Z,40.10
2022-12-31T13:30:03.931Z,47.30
2022-12-31T13:32:40.674Z,46.90
2022-12-31T13:35:23.476Z,47.80
2022-12-31T13:37:57.793Z,46.17
2022-12-31T13:40:35.453Z,44.50
2022-12-31T13:43:18.170Z,44.05
2022-12-31T13:45:47.367Z,45.25
2022-12-31T13:48:20.237Z,43.80
2022-12-31T13:51:01.790Z,42.97
2022-12-31T13:53:42.345Z,40.90
2022-12-31T14:00:19.686Z,45.30
2022-12-31T14:03:02.401Z,41.80
2022-12-31T14:05:32.348Z,45.28
2022-12-31T14:08:01.704Z,45.35
2022-12-31T14:10:41.662Z,43.08
2022-12-31T14:16:22.317Z,44.78
2022-12-31T14:19:07.559Z,43.30
2022-12-31T14:21:54.542Z,40.67
2022-12-31T14:24:42.095Z,48.47
2022-12-31T14:27:24.511Z,44.33
2022-12-31T14:30:13.494Z,43.78
2022-12-31T14:35:34.468Z,40.28
2022-12-31T14:38:19.722Z,41.58
2022-12-31T14:41:09.989Z,41.15
2022-12-31T14:43:56.994Z,41.67
2022-12-31T14:46:42.327Z,40.67
2022-12-31T14:49:51.742Z,47.10
2022-12-31T14:52:25.128Z,40.88
2022-12-31T14:55:18.266Z,45.10
2022-12-31T14:58:26.003Z,44.83
2022-12-31T15:04:45.974Z,40.25
2022-12-31T15:07:34.732Z,40.00
2022-12-31T15:10:49.354Z,41.58
2022-12-31T15:13:26.309Z,44.50
2022-12-31T15:16:11.188Z,37.92
2022-12-31T15:24:27.476Z,40.40
2022-12-31T15:27:14.917Z,39.90
2022-12-31T15:29:45.685Z,37.38
2022-12-31T15:32:22.533Z,43.97
2022-12-31T15:49:23.394Z,45.95
2022-12-31T15:54:39.266Z,46.63
2022-12-31T15:57:11.466Z,52.30
2022-12-31T15:59:40.390Z,58.13
2022-12-31T16:02:21.250Z,62.05
2022-12-31T16:04:48.903Z,58.40
2022-12-31T16:07:17.193Z,50.03
2022-12-31T16:10:26.750Z,52.17
2022-12-31T16:13:19.559Z,57.08
2022-12-31T16:15:50.130Z,57.60
2022-12-31T16:18:22.526Z,65.47
2022-12-31T16:20:51.931Z,70.62
2022-12-31T18:10:29.312Z,90.35
2022-12-31T18:48:03.780Z,84.97
2022-12-31T18:50:30.364Z,85.15
2022-12-31T18:52:56.947Z,77.75
2022-12-31T18:55:36.260Z,86.85
2022-12-31T18:58:02.843Z,80.32
2022-12-31T19:01:00.601Z,86.70
2022-12-31T19:06:56.095Z,85.82
2022-12-31T19:09:44.787Z,83.87
2022-12-31T19:12:13.320Z,84.37
2022-12-31T19:14:40.008Z,86.12
2022-12-31T19:19:32.010Z,89.87
2022-12-31T19:21:58.604Z,90.38
2022-12-31T19:24:26.953Z,87.75
2022-12-31T19:26:54.502Z,85.93
2022-12-31T19:29:46.072Z,81.75
2022-12-31T19:32:12.639Z,81.37
2022-12-31T19:37:27.568Z,79.20
2022-12-31T19:39:54.130Z,81.25
2022-12-31T19:42:22.886Z,80.25
2022-12-31T19:44:49.437Z,75.60
2022-12-31T19:47:15.991Z,77.70
2022-12-31T19:50:06.618Z,81.22
2022-12-31T19:56:05.290Z,81.50
2022-12-31T19:58:32.267Z,83.13
2022-12-31T20:01:02.894Z,87.22
2022-12-31T20:03:32.597Z,93.62
2022-12-31T20:06:08.722Z,151.93
2022-12-31T20:08:37.844Z,97.45
2022-12-31T20:11:22.245Z,112.57
2022-12-31T20:13:50.196Z,214.27
2022-12-31T20:16:18.816Z,264.65
2022-12-31T20:18:47.576Z,177.90
2022-12-31T20:21:39.235Z,188.57
2022-12-31T20:24:28.413Z,175.87
2022-12-31T20:41:41.724Z,106.47
2022-12-31T20:44:08.438Z,98.00
2022-12-31T20:46:35.220Z,93.75
2022-12-31T20:49:03.629Z,87.05
2022-12-31T20:51:32.805Z,86.30
2022-12-31T20:54:24.306Z,89.15
2022-12-31T20:57:47.033Z,95.18
2022-12-31T21:00:28.878Z,100.87
2022-12-31T21:03:04.923Z,104.55
2022-12-31T21:05:37.463Z,112.55
2022-12-31T21:08:04.286Z,121.80
2022-12-31T21:10:30.866Z,121.50
2022-12-31T21:12:57.431Z,120.90
2022-12-31T21:15:43.017Z,112.18
2022-12-31T21:18:09.630Z,286.37
2022-12-31T21:20:36.175Z,155.30
2022-12-31T21:23:02.781Z,142.05
2022-12-31T21:25:57.556Z,160.68
2022-12-31T21:28:45.768Z,211.62
2022-12-31T21:31:13.847Z,234.73
2022-12-31T21:33:45.129Z,217.10
2022-12-31T21:36:12.030Z,221.45
2022-12-31T21:38:39.043Z,209.62
2022-12-31T21:41:07.662Z,200.23
2022-12-31T21:43:53.470Z,208.35
2022-12-31T21:46:20.372Z,206.82
2022-12-31T21:48:46.923Z,193.40
2022-12-31T21:51:16.710Z,188.27
2022-12-31T22:00:59.511Z,156.18
2022-12-31T22:03:28.740Z,142.45
2022-12-31T22:06:00.014Z,131.00
2022-12-31T22:08:28.283Z,122.05
2022-12-31T22:10:55.167Z,124.82
2022-12-31T22:16:04.650Z,121.53
2022-12-31T22:18:35.050Z,117.37
2022-12-31T22:21:04.409Z,116.80
2022-12-31T22:23:32.346Z,133.00
2022-12-31T22:25:59.054Z,138.60
2022-12-31T22:29:34.574Z,131.93
2022-12-31T22:32:31.707Z,134.37
2022-12-31T22:34:58.286Z,124.97
2022-12-31T22:37:55.589Z,127.97
2022-12-31T22:40:11.777Z,126.95
2022-12-31T22:42:38.483Z,124.15
2022-12-31T22:45:06.690Z,114.32
2022-12-31T22:47:57.708Z,129.75
2022-12-31T22:50:24.253Z,107.20
2022-12-31T22:52:50.815Z,107.87
2022-12-31T22:55:17.396Z,109.32
2022-12-31T23:02:41.553Z,116.12
2022-12-31T23:05:15.223Z,117.60
2022-12-31T23:07:43.330Z,123.13
2022-12-31T23:10:29.575Z,118.95
2022-12-31T23:12:56.133Z,124.38
2022-12-31T23:15:41.380Z,118.03
2022-12-31T23:18:43.549Z,128.07
2022-12-31T23:21:28.769Z,132.30
2022-12-31T23:23:55.378Z,136.40
2022-12-31T23:26:21.941Z,136.18
2022-12-31T23:29:51.142Z,150.68
2022-12-31T23:32:41.888Z,172.65
2022-12-31T23:35:10.013Z,245.68
2022-12-31T23:37:37.034Z,223.18
2022-12-31T23:40:04.055Z,221.73
2022-12-31T23:42:30.581Z,210.52
2022-12-31T23:44:57.163Z,226.62
2022-12-31T23:49:58.958Z,430.63
2022-12-31T23:52:25.542Z,492.15
2022-12-31T23:55:11.498Z,495.73
2022-12-31T23:57:38.044Z,524.97
